createdAt,value
2018-09-09T00:01:46.541Z,62.93
2018-09-09T00:04:15.545Z,62.65
2018-09-09T00:06:44.553Z,63.17
2018-09-09T00:09:17.804Z,62.99
2018-09-09T00:11:47.808Z,62.74
2018-09-09T00:14:16.705Z,63.39
2018-09-09T00:16:45.703Z,63.42
2018-09-09T00:19:14.564Z,63.16
2018-09-09T00:21:43.456Z,63.07
2018-09-09T00:24:12.349Z,63.83
2018-09-09T00:26:41.351Z,63.76
2018-09-09T00:29:10.430Z,63.83
2018-09-09T00:31:39.329Z,63.28
2018-09-09T00:34:08.165Z,63.97
2018-09-09T00:36:37.072Z,64.11
2018-09-09T00:39:07.798Z,63.71
2018-09-09T00:41:36.746Z,63.88
2018-09-09T00:44:05.660Z,64.34
2018-09-09T00:46:37.659Z,64.37
2018-09-09T00:49:11.747Z,64.13
2018-09-09T00:51:45.655Z,64.21
2018-09-09T00:54:14.569Z,64.47
2018-09-09T00:56:43.596Z,64.15
2018-09-09T00:59:12.886Z,64.42
2018-09-09T01:01:41.791Z,64.48
2018-09-09T01:04:10.802Z,64.99
2018-09-09T01:06:39.687Z,64.72
2018-09-09T01:09:10.038Z,64.74
2018-09-09T01:11:38.905Z,64.94
2018-09-09T01:14:07.903Z,65.12
2018-09-09T01:16:36.887Z,64.98
2018-09-09T01:19:05.891Z,65.35
2018-09-09T01:21:34.703Z,65.77
2018-09-09T01:24:03.592Z,65.95
2018-09-09T01:26:32.461Z,65.76
2018-09-09T01:29:01.501Z,66.41
2018-09-09T01:31:30.373Z,66.28
2018-09-09T01:34:02.895Z,66.82
2018-09-09T01:36:31.741Z,66.70
2018-09-09T01:39:00.610Z,66.82
2018-09-09T01:41:29.931Z,67.32
2018-09-09T01:43:58.847Z,67.31
2018-09-09T01:46:27.767Z,67.25
2018-09-09T01:48:56.938Z,67.39
2018-09-09T01:51:25.994Z,67.25
2018-09-09T01:53:54.823Z,67.22
2018-09-09T01:56:23.658Z,67.10
2018-09-09T01:58:52.560Z,67.14
2018-09-09T02:01:21.497Z,67.12
2018-09-09T02:03:50.384Z,66.88
2018-09-09T02:06:19.257Z,67.15
2018-09-09T02:08:52.388Z,66.97
2018-09-09T02:11:21.396Z,67.24
2018-09-09T02:13:50.498Z,66.60
2018-09-09T02:16:19.380Z,66.60
2018-09-09T02:18:48.381Z,66.49
2018-09-09T02:21:17.307Z,66.55
2018-09-09T02:23:46.162Z,66.71
2018-09-09T02:26:14.969Z,66.60
2018-09-09T02:28:43.828Z,66.93
2018-09-09T02:31:12.768Z,66.53
2018-09-09T02:33:42.829Z,66.77
2018-09-09T02:36:11.684Z,66.52
2018-09-09T02:38:40.906Z,66.85
2018-09-09T02:41:09.888Z,66.74
2018-09-09T02:43:38.866Z,66.75
2018-09-09T02:46:08.037Z,66.75
2018-09-09T02:48:36.936Z,67.20
2018-09-09T02:51:05.790Z,67.53
2018-09-09T02:53:34.703Z,67.50
2018-09-09T02:56:08.379Z,67.22
2018-09-09T02:58:37.532Z,67.20
2018-09-09T03:01:06.722Z,67.00
2018-09-09T03:03:35.648Z,66.89
2018-09-09T03:06:05.003Z,66.88
2018-09-09T03:08:33.841Z,67.12
2018-09-09T03:11:08.108Z,67.33
2018-09-09T03:13:37.370Z,67.45
2018-09-09T03:16:06.381Z,67.08
2018-09-09T03:18:35.318Z,66.97
2018-09-09T03:21:04.161Z,66.57
2018-09-09T03:23:36.190Z,66.82
2018-09-09T03:26:05.204Z,66.70
2018-09-09T03:28:34.344Z,67.42
2018-09-09T03:31:03.325Z,67.14
2018-09-09T03:33:32.277Z,67.03
2018-09-09T03:36:01.175Z,66.99
2018-09-09T03:38:30.066Z,66.74
2018-09-09T03:40:58.987Z,66.95
2018-09-09T03:43:27.910Z,66.87
2018-09-09T03:45:56.964Z,66.71
2018-09-09T03:48:26.024Z,66.56
2018-09-09T03:50:54.895Z,67.05
2018-09-09T03:53:24.944Z,66.24
2018-09-09T03:55:54.021Z,66.54
2018-09-09T03:58:22.819Z,66.17
2018-09-09T04:00:52.395Z,66.31
2018-09-09T04:03:21.281Z,65.97
2018-09-09T04:05:50.090Z,65.72
2018-09-09T04:08:19.508Z,65.94
2018-09-09T04:10:48.517Z,65.67
2018-09-09T04:13:17.361Z,65.42
2018-09-09T04:15:46.572Z,65.37
2018-09-09T04:18:16.755Z,65.00
2018-09-09T04:20:45.739Z,64.84
2018-09-09T04:23:15.125Z,64.49
2018-09-09T04:25:44.033Z,64.55
2018-09-09T04:28:12.931Z,64.00
2018-09-09T04:30:42.139Z,63.49
2018-09-09T04:33:11.077Z,63.22
2018-09-09T04:35:40.067Z,62.37
2018-09-09T04:38:09.100Z,62.39
2018-09-09T04:40:38.012Z,62.32
2018-09-09T04:43:06.850Z,61.77
2018-09-09T04:45:36.097Z,61.78
2018-09-09T04:48:04.995Z,61.41
2018-09-09T04:50:34.009Z,61.06
2018-09-09T04:53:02.908Z,61.13
2018-09-09T04:55:31.809Z,60.54
2018-09-09T04:58:00.685Z,60.60
2018-09-09T05:00:29.704Z,59.90
2018-09-09T05:02:58.580Z,59.58
2018-09-09T05:05:27.559Z,58.88
2018-09-09T05:07:56.588Z,58.60
2018-09-09T05:10:25.430Z,58.91
2018-09-09T05:12:54.401Z,59.38
2018-09-09T05:15:23.474Z,58.67
2018-09-09T05:17:52.421Z,58.93
2018-09-09T05:20:21.268Z,58.44
2018-09-09T05:22:50.117Z,58.04
2018-09-09T05:25:19.048Z,58.02
2018-09-09T05:27:48.000Z,57.96
2018-09-09T05:30:17.368Z,57.61
2018-09-09T05:32:46.262Z,57.71
2018-09-09T05:35:15.199Z,57.28
2018-09-09T05:37:44.181Z,56.83
2018-09-09T05:40:13.188Z,56.92
2018-09-09T05:42:41.995Z,57.00
2018-09-09T05:45:11.665Z,56.52
2018-09-09T05:47:40.596Z,55.64
2018-09-09T05:50:09.640Z,56.58
2018-09-09T05:52:38.549Z,55.41
2018-09-09T05:55:07.537Z,55.95
2018-09-09T05:57:36.345Z,56.13
2018-09-09T06:00:05.447Z,56.13
2018-09-09T06:02:34.490Z,55.06
2018-09-09T06:05:06.657Z,55.38
2018-09-09T06:07:35.521Z,54.85
2018-09-09T06:10:04.473Z,54.46
2018-09-09T06:12:33.401Z,54.61
2018-09-09T06:15:02.381Z,55.45
2018-09-09T06:17:31.348Z,54.85
2018-09-09T06:20:00.588Z,54.90
2018-09-09T06:22:29.472Z,54.21
2018-09-09T06:24:59.352Z,54.65
2018-09-09T06:27:28.258Z,54.23
2018-09-09T06:29:57.292Z,54.26
2018-09-09T06:32:26.290Z,52.87
2018-09-09T06:34:55.306Z,53.85
2018-09-09T06:37:25.296Z,53.46
2018-09-09T06:39:54.223Z,53.10
2018-09-09T06:42:23.466Z,52.27
2018-09-09T06:44:52.357Z,51.99
2018-09-09T06:47:21.160Z,51.41
2018-09-09T06:49:50.511Z,51.32
2018-09-09T06:52:19.358Z,51.90
2018-09-09T06:54:48.205Z,50.84
2018-09-09T06:57:17.090Z,51.70
2018-09-09T06:59:46.022Z,51.42
2018-09-09T07:02:18.482Z,50.58
2018-09-09T07:04:47.408Z,50.20
2018-09-09T07:07:16.363Z,50.28
2018-09-09T07:09:45.344Z,50.72
2018-09-09T07:12:14.356Z,49.87
2018-09-09T07:14:43.175Z,50.14
2018-09-09T07:17:12.502Z,49.77
2018-09-09T07:19:42.332Z,49.29
2018-09-09T07:22:11.287Z,49.94
2018-09-09T07:24:40.926Z,49.25
2018-09-09T07:27:09.858Z,50.04
2018-09-09T07:29:38.837Z,49.79
2018-09-09T07:32:08.248Z,49.21
2018-09-09T07:34:37.167Z,48.13
2018-09-09T07:37:06.043Z,48.28
2018-09-09T07:39:35.063Z,48.55
2018-09-09T07:42:04.466Z,47.44
2018-09-09T07:44:33.423Z,48.68
2018-09-09T07:47:02.729Z,48.89
2018-09-09T07:49:31.717Z,48.52
2018-09-09T07:52:00.612Z,47.56
2018-09-09T07:54:29.888Z,48.01
2018-09-09T07:56:59.776Z,48.33
2018-09-09T07:59:28.711Z,48.17
2018-09-09T08:01:58.103Z,48.18
2018-09-09T08:04:26.942Z,48.26
2018-09-09T08:06:55.833Z,48.77
2018-09-09T08:09:24.983Z,48.41
2018-09-09T08:11:53.962Z,47.91
2018-09-09T08:14:22.890Z,47.24
2018-09-09T08:16:51.896Z,47.93
2018-09-09T08:19:21.161Z,47.86
2018-09-09T08:21:49.979Z,46.60
2018-09-09T08:24:19.824Z,47.26
2018-09-09T08:26:48.677Z,47.40
2018-09-09T08:29:17.530Z,44.96
2018-09-09T08:31:46.825Z,42.78
2018-09-09T08:34:15.612Z,42.01
2018-09-09T08:36:45.676Z,42.03
2018-09-09T08:39:14.730Z,41.80
2018-09-09T08:41:43.663Z,41.74
2018-09-09T08:44:12.657Z,42.28
2018-09-09T08:46:41.817Z,41.22
2018-09-09T08:49:10.626Z,41.78
2018-09-09T08:51:39.447Z,41.67
2018-09-09T08:54:08.490Z,40.78
2018-09-09T08:56:37.282Z,41.69
2018-09-09T08:59:06.342Z,40.60
2018-09-09T09:01:35.720Z,40.32
2018-09-09T09:04:04.622Z,39.56
2018-09-09T09:06:33.545Z,39.94
2018-09-09T09:09:02.477Z,38.51
2018-09-09T09:11:31.408Z,39.43
2018-09-09T09:14:00.317Z,39.19
2018-09-09T09:16:29.293Z,39.82
2018-09-09T09:34:58.876Z,37.17
2018-09-09T09:37:28.126Z,36.15
2018-09-09T09:39:57.093Z,35.14
2018-09-09T09:42:26.093Z,34.86
2018-09-09T09:44:55.488Z,34.81
2018-09-09T09:47:24.537Z,34.59
2018-09-09T09:49:56.686Z,35.02
2018-09-09T09:52:25.615Z,34.62
2018-09-09T09:54:54.516Z,34.21
2018-09-09T09:57:23.492Z,33.49
2018-09-09T09:59:52.483Z,34.50
2018-09-09T10:02:21.352Z,33.92
2018-09-09T10:04:53.486Z,33.92
2018-09-09T10:07:22.332Z,34.25
2018-09-09T10:09:51.194Z,33.32
2018-09-09T10:12:20.136Z,33.07
2018-09-09T10:14:49.080Z,32.83
2018-09-09T10:17:18.941Z,33.05
2018-09-09T10:19:47.870Z,33.02
2018-09-09T10:22:16.955Z,32.32
2018-09-09T10:24:45.821Z,30.85
2018-09-09T10:27:15.320Z,31.91
2018-09-09T10:29:44.318Z,31.43
2018-09-09T10:32:13.225Z,30.90
2018-09-09T10:35:07.319Z,31.49
2018-09-09T10:37:56.911Z,30.78
2018-09-09T10:40:26.252Z,31.34
2018-09-09T10:42:55.317Z,30.37
2018-09-09T10:45:24.187Z,31.13
2018-09-09T10:47:53.352Z,31.61
2018-09-09T10:50:22.198Z,31.38
2018-09-09T10:52:51.231Z,31.29
2018-09-09T10:55:20.258Z,31.84
2018-09-09T10:57:49.092Z,31.40
2018-09-09T11:00:18.081Z,31.82
2018-09-09T11:02:48.506Z,32.32
2018-09-09T11:05:17.429Z,31.75
2018-09-09T11:07:46.309Z,31.46
2018-09-09T11:10:15.307Z,30.41
2018-09-09T11:12:44.152Z,31.69
2018-09-09T11:15:13.104Z,31.44
2018-09-09T11:17:45.109Z,31.75
2018-09-09T11:20:14.012Z,31.49
2018-09-09T11:22:42.928Z,31.44
2018-09-09T11:25:12.861Z,31.06
2018-09-09T11:27:41.736Z,31.16
2018-09-09T11:30:10.809Z,31.50
2018-09-09T11:32:42.636Z,31.16
2018-09-09T11:35:11.522Z,31.13
2018-09-09T11:37:40.325Z,30.05
2018-09-09T11:40:09.413Z,29.72
2018-09-09T11:42:38.429Z,30.00
2018-09-09T11:45:07.353Z,30.25
2018-09-09T11:47:36.374Z,29.82
2018-09-09T11:50:05.448Z,29.54
2018-09-09T11:52:34.489Z,29.94
2018-09-09T11:55:03.427Z,30.22
2018-09-09T11:57:32.468Z,31.05
2018-09-09T12:00:01.399Z,29.67
2018-09-09T12:02:31.366Z,31.20
2018-09-09T12:05:00.342Z,30.15
2018-09-09T12:07:29.332Z,31.21
2018-09-09T12:10:01.831Z,32.17
2018-09-09T12:12:30.589Z,31.35
2018-09-09T12:14:59.895Z,30.72
2018-09-09T12:17:29.020Z,30.56
2018-09-09T12:19:58.075Z,30.87
2018-09-09T12:22:27.098Z,31.68
2018-09-09T12:24:56.035Z,29.82
2018-09-09T12:27:24.961Z,30.81
2018-09-09T12:29:53.806Z,29.37
2018-09-09T12:32:22.912Z,29.76
2018-09-09T12:34:51.632Z,29.95
2018-09-09T12:37:20.714Z,30.12
2018-09-09T12:39:50.128Z,29.93
2018-09-09T12:42:19.136Z,29.64
2018-09-09T12:44:58.118Z,30.16
2018-09-09T12:47:32.115Z,30.55
2018-09-09T12:50:01.712Z,30.32
2018-09-09T12:52:30.672Z,29.82
2018-09-09T12:54:59.745Z,30.67
2018-09-09T12:57:29.702Z,30.28
2018-09-09T12:59:58.639Z,29.71
2018-09-09T13:02:27.816Z,30.37
2018-09-09T13:04:58.382Z,30.62
2018-09-09T13:07:27.503Z,30.44
2018-09-09T13:09:56.270Z,30.49
2018-09-09T13:12:28.143Z,30.10
2018-09-09T13:14:57.077Z,29.34
2018-09-09T13:17:26.014Z,29.82
2018-09-09T13:20:06.433Z,30.91
2018-09-09T13:22:35.349Z,30.96
2018-09-09T13:25:04.298Z,30.36
2018-09-09T13:27:33.725Z,29.27
2018-09-09T13:30:02.614Z,29.56
2018-09-09T13:32:31.532Z,29.72
2018-09-09T13:35:00.914Z,29.62
2018-09-09T13:37:29.946Z,29.45
2018-09-09T13:39:59.892Z,28.51
2018-09-09T13:42:29.278Z,29.30
2018-09-09T13:44:58.724Z,29.29
2018-09-09T13:47:27.636Z,28.43
2018-09-09T13:49:56.739Z,28.26
2018-09-09T13:52:25.712Z,29.03
2018-09-09T13:54:54.728Z,29.26
2018-09-09T13:57:23.965Z,28.27
2018-09-09T13:59:52.828Z,28.27
2018-09-09T14:02:21.805Z,28.64
2018-09-09T14:04:51.079Z,28.72
2018-09-09T14:07:20.053Z,28.68
2018-09-09T14:09:49.070Z,29.27
2018-09-09T14:12:18.366Z,27.71
2018-09-09T14:14:47.253Z,27.79
2018-09-09T14:17:16.176Z,29.08
2018-09-09T14:19:45.638Z,28.23
2018-09-09T14:22:18.274Z,28.92
2018-09-09T14:24:47.533Z,28.80
2018-09-09T14:27:16.392Z,28.95
2018-09-09T14:29:45.970Z,29.49
2018-09-09T14:32:14.857Z,29.32
2018-09-09T14:34:43.817Z,30.40
2018-09-09T14:37:13.122Z,30.09
2018-09-09T14:39:42.493Z,30.42
2018-09-09T14:42:11.602Z,30.75
2018-09-09T14:44:40.438Z,30.50
2018-09-09T14:47:09.579Z,31.25
2018-09-09T14:49:38.487Z,31.80
2018-09-09T14:52:07.529Z,32.19
2018-09-09T14:54:37.523Z,32.59
2018-09-09T14:57:09.480Z,33.31
2018-09-09T14:59:38.691Z,33.66
2018-09-09T15:02:07.696Z,33.91
2018-09-09T15:04:36.693Z,34.54
2018-09-09T15:07:05.914Z,34.82
2018-09-09T15:09:34.874Z,35.23
2018-09-09T15:12:04.634Z,35.97
2018-09-09T15:14:33.594Z,36.05
2018-09-09T15:17:02.428Z,35.59
2018-09-09T15:19:31.384Z,36.90
2018-09-09T15:22:00.340Z,37.21
2018-09-09T15:24:29.900Z,38.20
2018-09-09T15:26:59.827Z,37.68
2018-09-09T15:29:28.886Z,37.85
2018-09-09T15:31:57.758Z,37.22
2018-09-09T15:34:27.183Z,37.65
2018-09-09T15:36:56.952Z,38.45
2018-09-09T15:39:25.963Z,38.12
2018-09-09T15:41:55.315Z,38.51
2018-09-09T15:44:24.226Z,37.76
2018-09-09T15:46:56.986Z,37.51
2018-09-09T15:49:29.614Z,38.79
2018-09-09T15:51:58.897Z,38.13
2018-09-09T15:54:27.789Z,39.79
2018-09-09T15:56:56.617Z,40.29
2018-09-09T15:59:25.582Z,39.65
2018-09-09T16:01:55.475Z,40.62
2018-09-09T16:08:07.158Z,39.78
2018-09-09T16:10:37.248Z,40.41
2018-09-09T16:13:07.112Z,40.94
2018-09-09T16:15:36.022Z,41.00
2018-09-09T16:18:05.359Z,42.31
2018-09-09T16:20:34.207Z,41.34
2018-09-09T16:23:03.192Z,42.38
2018-09-09T16:25:32.429Z,41.59
2018-09-09T16:28:01.354Z,42.00
2018-09-09T16:30:30.328Z,42.89
2018-09-09T16:32:59.281Z,43.13
2018-09-09T16:35:28.160Z,43.78
2018-09-09T16:37:57.033Z,44.59
2018-09-09T16:40:26.092Z,44.87
2018-09-09T16:42:55.131Z,44.00
2018-09-09T16:45:24.109Z,44.18
2018-09-09T16:47:53.457Z,45.32
2018-09-09T16:50:23.395Z,44.74
2018-09-09T16:52:52.258Z,45.02
2018-09-09T16:55:37.268Z,45.56
2018-09-09T16:58:06.363Z,46.65
2018-09-09T17:00:35.314Z,46.59
2018-09-09T17:03:04.821Z,45.89
2018-09-09T17:05:44.567Z,45.75
2018-09-09T17:08:13.833Z,46.14
2018-09-09T17:10:42.829Z,47.27
2018-09-09T17:13:11.804Z,47.58
2018-09-09T17:15:40.675Z,47.42
2018-09-09T17:18:09.672Z,47.43
2018-09-09T17:20:38.848Z,47.55
2018-09-09T17:23:07.960Z,48.35
2018-09-09T17:25:36.926Z,48.57
2018-09-09T17:28:05.992Z,48.43
2018-09-09T17:30:34.963Z,48.80
2018-09-09T17:33:03.959Z,48.39
2018-09-09T17:35:32.821Z,49.37
2018-09-09T17:38:01.873Z,48.33
2018-09-09T17:40:30.838Z,48.54
2018-09-09T17:42:59.749Z,49.38
2018-09-09T17:45:29.493Z,48.96
2018-09-09T17:48:05.196Z,49.57
2018-09-09T17:50:34.550Z,49.97
2018-09-09T17:53:03.710Z,50.20
2018-09-09T17:55:34.269Z,49.05
2018-09-09T17:58:06.563Z,49.01
2018-09-09T18:00:35.572Z,49.80
2018-09-09T18:03:05.491Z,49.17
2018-09-09T18:05:38.033Z,48.85
2018-09-09T18:08:13.105Z,49.09
2018-09-09T18:10:42.871Z,49.37
2018-09-09T18:13:13.025Z,48.92
2018-09-09T18:15:42.082Z,48.46
2018-09-09T18:18:12.590Z,48.11
2018-09-09T18:20:42.198Z,48.32
2018-09-09T18:23:15.821Z,49.12
2018-09-09T18:25:46.941Z,49.05
2018-09-09T18:28:20.268Z,48.57
2018-09-09T18:30:49.158Z,49.36
2018-09-09T18:33:18.175Z,48.84
2018-09-09T18:35:47.580Z,48.97
2018-09-09T18:38:19.927Z,49.76
2018-09-09T18:40:49.827Z,49.86
2018-09-09T18:43:18.866Z,49.20
2018-09-09T18:45:48.113Z,49.12
2018-09-09T18:48:23.683Z,49.65
2018-09-09T18:51:00.566Z,50.38
2018-09-09T18:53:37.082Z,48.47
2018-09-09T18:56:06.196Z,49.63
2018-09-09T18:58:35.450Z,48.84
2018-09-09T19:01:04.591Z,49.53
2018-09-09T19:03:33.684Z,48.97
2018-09-09T19:10:07.907Z,49.91
2018-09-09T19:12:36.986Z,50.08
2018-09-09T19:15:06.277Z,50.31
2018-09-09T19:17:35.366Z,50.76
2018-09-09T19:20:04.469Z,50.74
2018-09-09T19:22:33.513Z,51.12
2018-09-09T19:25:02.738Z,51.13
2018-09-09T19:27:33.805Z,50.59
2018-09-09T19:30:02.935Z,50.38
2018-09-09T19:32:31.934Z,49.97
2018-09-09T19:35:01.084Z,49.92
2018-09-09T19:37:30.668Z,49.40
2018-09-09T19:39:59.663Z,49.25
2018-09-09T19:42:28.866Z,48.85
2018-09-09T19:45:04.761Z,49.03
2018-09-09T19:47:34.350Z,49.17
2018-09-09T19:50:04.494Z,49.07
2018-09-09T19:52:38.393Z,48.63
2018-09-09T19:55:07.706Z,49.25
2018-09-09T19:57:37.146Z,48.65
2018-09-09T20:00:12.348Z,48.80
2018-09-09T20:02:41.308Z,50.06
2018-09-09T20:05:10.193Z,49.14
2018-09-09T20:07:45.409Z,50.23
2018-09-09T20:10:14.524Z,50.12
2018-09-09T20:12:44.602Z,50.25
2018-09-09T20:15:13.817Z,50.21
2018-09-09T20:17:42.884Z,49.54
2018-09-09T20:20:15.313Z,49.63
2018-09-09T20:22:44.590Z,49.71
2018-09-09T20:25:13.640Z,49.42
2018-09-09T20:27:43.623Z,49.24
2018-09-09T20:30:17.858Z,49.39
2018-09-09T20:32:46.925Z,48.72
2018-09-09T20:35:16.525Z,48.73
2018-09-09T20:37:49.425Z,49.69
2018-09-09T20:40:18.619Z,49.22
2018-09-09T20:42:48.927Z,50.03
2018-09-09T20:45:25.818Z,49.95
2018-09-09T20:48:01.714Z,49.27
2018-09-09T20:50:31.142Z,50.30
2018-09-09T20:53:00.295Z,49.93
2018-09-09T20:55:29.622Z,49.61
2018-09-09T20:57:59.803Z,49.99
2018-09-09T21:05:45.177Z,50.21
2018-09-09T21:08:15.469Z,49.65
2018-09-09T21:10:56.530Z,49.62
2018-09-09T21:13:25.806Z,49.61
2018-09-09T21:15:54.894Z,50.26
2018-09-09T21:18:24.995Z,50.32
2018-09-09T21:20:54.521Z,49.66
2018-09-09T21:23:23.594Z,50.03
2018-09-09T21:25:53.675Z,50.16
2018-09-09T21:28:22.992Z,49.90
2018-09-09T21:30:51.987Z,49.98
2018-09-09T21:33:20.997Z,49.35
2018-09-09T21:35:50.092Z,49.33
2018-09-09T21:38:18.856Z,49.24
2018-09-09T21:40:47.769Z,49.47
2018-09-09T21:43:16.976Z,48.47
2018-09-09T21:45:46.113Z,49.43
2018-09-09T21:48:15.113Z,49.25
2018-09-09T21:50:44.582Z,49.09
2018-09-09T21:53:17.437Z,49.01
2018-09-09T21:55:46.849Z,49.16
2018-09-09T21:58:18.921Z,49.15
2018-09-09T22:03:42.217Z,48.77
2018-09-09T22:06:12.069Z,48.74
2018-09-09T22:08:41.025Z,48.93
2018-09-09T22:11:09.908Z,48.39
2018-09-09T22:13:39.389Z,48.68
2018-09-09T22:16:08.411Z,49.05
2018-09-09T22:18:37.388Z,48.17
2018-09-09T22:21:12.231Z,48.85
2018-09-09T22:23:42.401Z,48.26
2018-09-09T22:26:18.481Z,48.93
2018-09-09T22:28:48.457Z,48.37
2018-09-09T22:31:22.329Z,49.12
2018-09-09T22:33:55.359Z,48.43
2018-09-09T22:36:25.345Z,48.92
2018-09-09T22:38:55.050Z,48.61
2018-09-09T22:41:24.195Z,48.67
2018-09-09T22:44:00.332Z,48.71
2018-09-09T22:46:30.022Z,48.03
2018-09-09T22:48:58.973Z,47.97
2018-09-09T22:51:28.142Z,48.43
2018-09-09T22:53:56.960Z,47.66
2018-09-09T22:56:25.885Z,47.63
2018-09-09T22:59:04.090Z,48.07
2018-09-09T23:01:37.804Z,47.60
2018-09-09T23:04:07.346Z,47.69
2018-09-09T23:09:58.790Z,48.16
2018-09-09T23:12:27.765Z,48.70
2018-09-09T23:14:56.811Z,48.40
2018-09-09T23:17:25.972Z,48.63
2018-09-09T23:19:54.984Z,48.63
2018-09-09T23:22:23.832Z,48.68
2018-09-09T23:24:53.328Z,48.91
2018-09-09T23:27:22.236Z,49.35
2018-09-09T23:29:51.087Z,49.10
2018-09-09T23:32:20.401Z,49.98
2018-09-09T23:34:49.305Z,49.80
2018-09-09T23:37:18.198Z,49.76
2018-09-09T23:39:47.512Z,49.73
2018-09-09T23:42:16.412Z,49.88
2018-09-09T23:44:45.547Z,50.42
2018-09-09T23:47:14.647Z,49.93
2018-09-09T23:49:43.606Z,49.59
2018-09-09T23:52:12.596Z,50.12
2018-09-09T23:54:41.960Z,50.00
2018-09-09T23:57:11.001Z,49.92
2018-09-09T23:59:39.958Z,49.78
